Time;durP1;ratioP1;P1;durP2;ratioP2;P2;SDS_P1;SDS_P2;PMS_P1;PMS_P2;Temp;Humidity;BMP_temperature;BMP_pressure;BME280_temperature;BME280_humidity;BME280_pressure;Samples;Min_cycle;Max_cycle;Signal;HPM_P1;HPM_P2
2023/01/31 00:01:24;;;;;;;11.40;2.63;;;;;;;5.54;75.29;100996.25;10345818;28;20227;-46
2023/01/31 00:06:31;;;;;;;9.05;2.90;;;;;;;5.61;74.84;101002.09;10346329;28;20041;-47
2023/01/31 00:11:33;;;;;;;8.60;3.17;;;;;;;5.53;76.05;101005.09;10341898;28;20065;-47
2023/01/31 00:16:35;;;;;;;9.45;2.90;;;;;;;5.44;76.71;100981.75;10345952;28;20076;-45
2023/01/31 00:21:40;;;;;;;9.60;3.08;;;;;;;5.34;77.00;100989.25;10341243;28;20054;-47
2023/01/31 00:26:41;;;;;;;6.82;2.67;;;;;;;5.34;77.47;100983.13;10343569;28;20059;-47
2023/01/31 00:31:43;;;;;;;6.63;2.75;;;;;;;5.27;77.17;100980.78;10339412;28;20128;-47
2023/01/31 00:36:45;;;;;;;6.47;2.17;;;;;;;5.33;76.63;100977.00;10341302;28;20050;-47
2023/01/31 00:41:46;;;;;;;10.25;2.63;;;;;;;5.34;76.70;100994.53;10342388;28;20046;-46
2023/01/31 00:46:47;;;;;;;5.97;1.95;;;;;;;5.24;77.26;100983.56;10339938;28;20060;-46
2023/01/31 00:51:49;;;;;;;7.75;2.53;;;;;;;5.15;77.35;100968.16;10347944;28;20428;-46
2023/01/31 00:56:50;;;;;;;10.95;2.70;;;;;;;5.01;78.03;100970.56;10344032;28;20049;-47
2023/01/31 01:01:52;;;;;;;8.13;2.90;;;;;;;5.02;78.25;100988.97;10338511;28;20042;-47
2023/01/31 01:06:53;;;;;;;8.70;2.63;;;;;;;5.05;78.18;100993.25;10365107;28;20053;-47
2023/01/31 01:11:55;;;;;;;10.25;3.08;;;;;;;5.03;78.43;101003.00;10350527;28;20053;-47
2023/01/31 01:16:57;;;;;;;8.77;2.75;;;;;;;5.03;78.51;100990.69;10354353;28;20915;-48
2023/01/31 01:21:59;;;;;;;6.20;2.63;;;;;;;5.05;78.42;100993.25;10349121;28;20090;-47
2023/01/31 01:27:03;;;;;;;6.25;2.03;;;;;;;4.99;78.68;100997.03;10352941;28;20045;-48
2023/01/31 01:32:06;;;;;;;8.95;2.95;;;;;;;5.03;78.97;101008.28;10352826;28;20049;-48
2023/01/31 01:37:18;;;;;;;10.75;2.60;;;;;;;5.13;78.48;101007.81;10354688;28;20049;-46
2023/01/31 01:42:22;;;;;;;10.13;3.13;;;;;;;5.05;78.16;100994.09;10350118;28;20053;-47
2023/01/31 01:47:43;;;;;;;8.68;2.97;;;;;;;5.02;78.24;100988.13;10345391;28;20042;-47
2023/01/31 01:52:49;;;;;;;7.82;2.40;;;;;;;4.84;78.03;100981.88;10354069;28;20192;-53
2023/01/31 01:57:54;;;;;;;12.48;3.63;;;;;;;4.93;78.48;101006.06;10350631;28;20128;-47
2023/01/31 02:02:58;;;;;;;10.02;3.00;;;;;;;4.82;78.33;101013.63;10347936;28;20049;-47
2023/01/31 02:08:01;;;;;;;8.27;2.83;;;;;;;4.91;78.40;101028.19;10347987;28;20053;-47
2023/01/31 02:13:04;;;;;;;8.70;3.13;;;;;;;4.93;77.70;101013.97;10343991;28;20188;-48
2023/01/31 02:18:07;;;;;;;13.38;3.15;;;;;;;4.59;77.67;100965.38;10350459;28;20144;-50
2023/01/31 02:23:27;;;;;;;12.77;3.55;;;;;;;4.79;77.73;101008.47;10344985;28;20081;-48
2023/01/31 02:28:47;;;;;;;9.45;3.05;;;;;;;4.68;78.18;101008.09;10354407;28;20393;-47
2023/01/31 02:34:07;;;;;;;9.38;3.03;;;;;;;4.55;77.92;101000.72;10352998;28;20107;-51
2023/01/31 02:39:26;;;;;;;16.25;2.95;;;;;;;4.68;77.63;101001.00;10347147;28;20045;-48
2023/01/31 02:45:00;;;;;;;11.60;3.05;;;;;;;4.59;77.71;101001.41;10344903;28;20041;-48
2023/01/31 02:50:24;;;;;;;11.60;2.78;;;;;;;4.51;77.87;101008.81;10342835;28;20057;-47
2023/01/31 03:01:04;;;;;;;11.60;3.40;;;;;;;4.43;77.62;101001.25;10345458;28;20042;-47
2023/01/31 03:06:21;;;;;;;9.70;3.00;;;;;;;4.46;77.33;101027.47;10347312;28;20080;-47
2023/01/31 03:11:34;;;;;;;11.90;3.28;;;;;;;4.44;77.31;101034.56;10348178;28;20053;-50
2023/01/31 03:22:25;;;;;;;13.73;3.30;;;;;;;4.75;76.20;101059.66;10316953;28;20045;-48
2023/01/31 03:27:27;;;;;;;17.55;3.42;;;;;;;4.58;75.88;101028.75;10343264;28;20049;-47
2023/01/31 03:32:35;;;;;;;10.93;3.00;;;;;;;4.72;75.29;101063.25;10340763;28;20041;-49
2023/01/31 03:37:54;;;;;;;10.68;3.40;;;;;;;4.61;75.50;101057.63;10341995;28;21971;-47
2023/01/31 03:43:10;;;;;;;13.90;3.28;;;;;;;4.47;75.08;101026.53;10337026;28;20037;-46
2023/01/31 03:48:16;;;;;;;11.38;3.00;;;;;;;4.48;75.21;101046.72;10340877;28;20132;-47
2023/01/31 03:53:26;;;;;;;10.02;2.78;;;;;;;4.53;75.62;101059.69;10343107;28;20388;-47
2023/01/31 03:58:30;;;;;;;10.48;3.50;;;;;;;4.31;74.81;101013.16;10336300;28;20041;-46
2023/01/31 04:03:41;;;;;;;8.88;2.75;;;;;;;4.48;75.05;101065.16;10339995;28;20049;-50
2023/01/31 04:08:42;;;;;;;10.07;3.10;;;;;;;4.36;75.36;101065.69;10340618;28;20044;-46
2023/01/31 04:13:44;;;;;;;10.40;2.95;;;;;;;4.36;75.57;101063.06;10338621;28;20055;-47
2023/01/31 04:18:45;;;;;;;11.40;2.97;;;;;;;4.29;75.74;101072.13;10339959;28;20128;-47
2023/01/31 04:23:47;;;;;;;9.98;3.53;;;;;;;4.24;75.42;101064.41;10340646;28;20730;-56
2023/01/31 04:28:49;;;;;;;8.93;2.70;;;;;;;4.16;75.59;101056.84;10337709;28;20599;-53
2023/01/31 04:33:50;;;;;;;14.75;2.78;;;;;;;4.21;75.49;101049.56;10343305;28;20057;-47
2023/01/31 04:38:52;;;;;;;10.93;2.83;;;;;;;4.28;75.23;101055.47;10349345;28;20085;-47
2023/01/31 04:43:53;;;;;;;13.15;2.38;;;;;;;4.23;75.66;101026.66;10352502;28;20214;-47
2023/01/31 04:48:55;;;;;;;8.35;2.58;;;;;;;4.15;75.55;101026.13;10347541;28;20693;-50
2023/01/31 04:53:56;;;;;;;7.22;2.28;;;;;;;4.00;75.89;101018.84;10358786;28;20046;-47
2023/01/31 04:58:58;;;;;;;12.80;4.90;;;;;;;3.92;76.21;101005.13;10348565;28;20158;-49
2023/01/31 05:03:59;;;;;;;10.63;3.20;;;;;;;4.09;76.22;101018.47;10351954;28;20499;-49
2023/01/31 05:09:01;;;;;;;10.43;3.30;;;;;;;4.05;75.61;101019.50;10355034;28;20767;-47
2023/01/31 05:14:02;;;;;;;10.13;3.20;;;;;;;4.02;75.99;101022.28;10352951;28;20054;-50
2023/01/31 05:19:03;;;;;;;7.65;2.63;;;;;;;3.96;75.89;101018.09;10349546;28;20049;-49
2023/01/31 05:24:07;;;;;;;9.43;2.97;;;;;;;3.84;76.15;101008.06;10343385;28;20671;-47
2023/01/31 05:29:08;;;;;;;9.30;3.60;;;;;;;3.84;76.23;101008.94;10348137;28;20053;-49
2023/01/31 05:34:13;;;;;;;15.25;3.17;;;;;;;3.79;75.91;101021.44;10348864;28;20125;-48
2023/01/31 05:39:15;;;;;;;9.68;3.10;;;;;;;3.78;75.87;101008.31;10347216;28;20045;-47
2023/01/31 05:44:16;;;;;;;9.73;3.78;;;;;;;3.73;75.89;101026.94;10346304;28;20088;-47
2023/01/31 05:49:18;;;;;;;13.50;2.80;;;;;;;3.68;76.18;101018.38;10344917;28;20073;-47
2023/01/31 05:54:19;;;;;;;8.52;3.05;;;;;;;3.69;76.18;101020.06;10346331;28;20631;-49
2023/01/31 05:59:21;;;;;;;12.50;3.05;;;;;;;3.63;75.91;101004.50;10347003;28;20053;-49
2023/01/31 06:04:22;;;;;;;13.73;3.85;;;;;;;3.72;75.95;100997.13;10342569;28;20715;-49
2023/01/31 06:09:24;;;;;;;10.93;3.28;;;;;;;3.70;76.13;101017.38;10336910;28;20081;-47
2023/01/31 06:14:25;;;;;;;8.93;3.33;;;;;;;3.62;76.08;101008.06;10346061;28;20054;-48
2023/01/31 06:19:26;;;;;;;8.20;2.97;;;;;;;3.63;75.79;100999.25;10345104;28;20052;-47
2023/01/31 06:24:28;;;;;;;8.98;3.03;;;;;;;3.60;76.06;101012.53;10343720;28;20535;-47
2023/01/31 06:29:29;;;;;;;9.63;2.65;;;;;;;3.53;76.17;101018.03;10344347;28;20152;-48
2023/01/31 06:34:31;;;;;;;7.70;2.78;;;;;;;3.43;76.44;101008.78;10348796;28;20122;-49
2023/01/31 06:39:32;;;;;;;7.70;2.70;;;;;;;3.61;76.03;101016.91;10342875;28;20057;-48
2023/01/31 06:44:34;;;;;;;10.52;2.80;;;;;;;3.67;75.56;101016.66;10345894;28;20060;-47
2023/01/31 06:49:35;;;;;;;13.68;3.58;;;;;;;3.73;75.65;101026.94;10346437;28;20537;-47
2023/01/31 06:54:37;;;;;;;8.27;2.78;;;;;;;3.84;74.99;101014.22;10346173;28;20168;-47
2023/01/31 06:59:39;;;;;;;8.30;2.80;;;;;;;3.87;75.51;101018.47;10340400;28;20855;-54
2023/01/31 07:04:41;;;;;;;8.18;3.60;;;;;;;3.75;75.30;101003.19;10348122;28;20056;-48
2023/01/31 07:09:42;;;;;;;10.68;3.72;;;;;;;3.98;74.69;101026.81;10350893;28;20814;-48
2023/01/31 07:14:44;;;;;;;8.32;3.08;;;;;;;3.89;74.96;101022.78;10345924;28;20053;-48
2023/01/31 07:19:46;;;;;;;8.30;2.70;;;;;;;3.93;74.75;101026.13;10340752;28;20144;-48
2023/01/31 07:24:49;;;;;;;12.57;4.15;;;;;;;3.77;74.59;101033.81;10340630;28;20061;-47
2023/01/31 07:29:51;;;;;;;13.65;5.78;;;;;;;3.72;75.27;101036.63;10347934;28;20059;-51
2023/01/31 07:34:52;;;;;;;9.38;2.80;;;;;;;3.77;74.77;101040.81;10342450;28;20060;-47
2023/01/31 07:39:54;;;;;;;10.27;3.53;;;;;;;3.95;74.71;101041.88;10346799;28;20061;-54
2023/01/31 07:44:55;;;;;;;11.30;4.20;;;;;;;3.89;74.63;101045.63;10347530;28;20049;-48
2023/01/31 07:49:56;;;;;;;10.38;4.30;;;;;;;4.14;73.94;101027.03;10348594;28;20057;-48
2023/01/31 07:54:58;;;;;;;12.90;3.80;;;;;;;4.39;73.42;101031.28;10342443;28;20546;-48
2023/01/31 08:00:00;;;;;;;9.00;3.70;;;;;;;4.37;72.52;101039.25;10349010;28;20477;-48
2023/01/31 08:05:01;;;;;;;9.68;3.05;;;;;;;4.34;72.28;101027.97;10346556;28;20100;-48
2023/01/31 08:10:04;;;;;;;10.05;3.45;;;;;;;4.21;72.60;101041.66;10346756;28;20060;-48
2023/01/31 08:15:05;;;;;;;10.15;3.88;;;;;;;3.97;73.78;101046.16;10352904;28;20159;-48
2023/01/31 08:20:07;;;;;;;10.25;3.85;;;;;;;3.98;73.81;101049.66;10355962;28;20068;-48
2023/01/31 08:25:09;;;;;;;10.35;4.45;;;;;;;4.11;73.91;101053.50;10351094;28;20061;-48
2023/01/31 08:30:11;;;;;;;9.20;3.58;;;;;;;4.07;73.69;101057.22;10353590;28;20068;-48
2023/01/31 08:35:13;;;;;;;8.65;4.18;;;;;;;4.10;73.56;101062.34;10351554;28;20056;-48
2023/01/31 08:40:15;;;;;;;11.80;5.68;;;;;;;3.63;75.50;101062.44;10353216;28;20057;-48
2023/01/31 08:45:16;;;;;;;8.07;4.68;;;;;;;3.66;75.49;101059.69;10350829;28;20160;-47
2023/01/31 08:50:17;;;;;;;11.38;6.55;;;;;;;3.58;75.68;101072.31;10346512;28;20870;-48
2023/01/31 08:55:30;;;;;;;11.10;6.57;;;;;;;3.69;75.69;101064.84;10354491;28;20753;-48
2023/01/31 09:00:31;;;;;;;9.93;7.38;;;;;;;3.73;75.93;101074.34;10355336;28;20044;-48
2023/01/31 09:05:33;;;;;;;16.20;8.80;;;;;;;3.62;76.47;101073.88;10357604;28;20127;-47
2023/01/31 09:10:35;;;;;;;17.70;9.80;;;;;;;3.56;76.80;101056.56;10350639;28;20550;-50
2023/01/31 09:15:36;;;;;;;14.45;9.95;;;;;;;3.66;77.22;101073.72;10354853;28;20049;-48
2023/01/31 09:20:38;;;;;;;16.10;10.45;;;;;;;3.61;77.71;101067.78;10352022;28;20105;-47
2023/01/31 09:25:39;;;;;;;19.90;11.00;;;;;;;3.62;77.96;101080.03;10349134;28;20042;-49
2023/01/31 09:30:48;;;;;;;15.13;12.18;;;;;;;3.58;78.15;101048.59;10348706;28;20061;-48
2023/01/31 09:35:57;;;;;;;16.67;10.00;;;;;;;3.67;78.27;101061.41;10350447;28;20924;-48
2023/01/31 09:41:03;;;;;;;18.33;10.70;;;;;;;3.70;78.03;101058.66;10349277;28;20057;-48
2023/01/31 09:46:11;;;;;;;15.02;10.63;;;;;;;3.73;78.02;101063.81;10353976;28;20100;-49
2023/01/31 09:51:15;;;;;;;14.25;9.80;;;;;;;3.65;78.54;101045.69;10353369;28;20064;-55
2023/01/31 09:56:30;;;;;;;19.13;10.50;;;;;;;3.66;78.98;101046.53;10354426;28;20804;-48
2023/01/31 10:01:53;;;;;;;16.88;10.30;;;;;;;3.74;78.64;101026.03;10347532;28;20054;-48
2023/01/31 10:07:05;;;;;;;17.70;9.57;;;;;;;3.92;78.37;101028.81;10343111;28;20204;-48
2023/01/31 10:12:29;;;;;;;16.85;9.45;;;;;;;3.94;77.65;101032.28;10350484;28;20052;-49
2023/01/31 10:17:39;;;;;;;14.48;8.25;;;;;;;3.96;78.30;101022.53;10349718;28;20053;-48
2023/01/31 10:22:52;;;;;;;17.60;8.73;;;;;;;4.12;78.00;101035.94;10347964;28;20046;-48
2023/01/31 10:27:59;;;;;;;14.20;8.27;;;;;;;4.03;77.72;101013.47;10345725;28;20045;-48
2023/01/31 10:33:17;;;;;;;14.07;6.72;;;;;;;4.17;77.44;100995.28;10347411;28;20807;-47
2023/01/31 10:38:26;;;;;;;11.32;6.45;;;;;;;4.20;77.52;100981.13;10347273;28;20522;-48
2023/01/31 10:43:42;;;;;;;12.55;7.78;;;;;;;4.33;77.15;100989.38;10347839;28;20064;-49
2023/01/31 10:48:46;;;;;;;14.00;7.63;;;;;;;4.47;76.88;100965.06;10345413;28;21439;-47
2023/01/31 10:54:12;;;;;;;13.18;8.48;;;;;;;4.57;76.03;100967.22;10348430;28;20388;-48
2023/01/31 10:59:21;;;;;;;15.43;7.50;;;;;;;4.68;75.79;100965.88;10348844;28;20892;-48
2023/01/31 11:04:41;;;;;;;16.63;8.05;;;;;;;5.42;72.53;100946.63;10350860;28;20049;-47
2023/01/31 11:09:47;;;;;;;10.90;6.70;;;;;;;5.03;73.50;100947.59;10346898;28;20106;-47
2023/01/31 11:15:16;;;;;;;10.55;6.68;;;;;;;4.77;75.33;100941.72;10343182;28;20045;-48
2023/01/31 11:20:24;;;;;;;9.35;7.10;;;;;;;4.70;75.28;100941.16;10342645;28;20130;-48
2023/01/31 11:25:27;;;;;;;12.38;7.35;;;;;;;4.78;75.10;100907.38;10329511;28;20134;-49
2023/01/31 11:30:33;;;;;;;12.02;6.05;;;;;;;4.88;75.12;100907.81;10341872;28;20675;-48
2023/01/31 11:35:35;;;;;;;13.52;6.82;;;;;;;4.77;74.81;100910.06;10343508;28;20049;-48
2023/01/31 11:40:38;;;;;;;10.40;6.07;;;;;;;4.78;74.81;100896.81;10348754;28;20053;-48
2023/01/31 11:45:44;;;;;;;13.20;6.57;;;;;;;4.71;74.83;100881.34;10346249;28;20152;-48
2023/01/31 11:50:54;;;;;;;13.27;6.82;;;;;;;4.75;75.13;100890.84;10345976;28;20057;-48
2023/01/31 11:56:09;;;;;;;9.88;6.15;;;;;;;4.73;75.25;100867.16;10348694;28;20091;-48
2023/01/31 12:01:22;;;;;;;11.88;5.95;;;;;;;4.88;75.16;100848.91;10347116;28;20848;-50
2023/01/31 12:06:36;;;;;;;10.55;6.18;;;;;;;4.84;74.93;100853.47;10346005;28;20142;-49
2023/01/31 12:11:50;;;;;;;8.27;5.45;;;;;;;4.80;75.00;100862.44;10350698;28;20051;-49
2023/01/31 12:16:54;;;;;;;10.70;5.53;;;;;;;4.80;75.25;100841.34;10346554;28;20140;-49
2023/01/31 12:22:08;;;;;;;12.18;5.97;;;;;;;4.80;75.15;100801.78;10349079;28;20057;-49
2023/01/31 12:27:28;;;;;;;8.68;6.03;;;;;;;4.87;75.40;100794.44;10345501;28;20061;-49
2023/01/31 12:33:01;;;;;;;10.38;5.53;;;;;;;4.81;75.63;100790.31;10346562;28;20189;-48
2023/01/31 12:38:39;;;;;;;11.68;5.85;;;;;;;4.91;75.24;100785.47;10314011;28;20060;-48
2023/01/31 12:43:40;;;;;;;11.75;6.50;;;;;;;4.95;75.52;100793.16;10285062;28;20183;-48
2023/01/31 12:49:00;;;;;;;15.05;6.63;;;;;;;4.92;75.83;100788.03;10345652;28;20071;-51
2023/01/31 12:54:17;;;;;;;10.98;6.47;;;;;;;4.80;76.79;100772.78;10346988;28;20058;-51
2023/01/31 12:59:37;;;;;;;15.15;6.82;;;;;;;4.81;77.42;100765.72;10349427;28;20869;-49
2023/01/31 13:04:55;;;;;;;16.35;7.63;;;;;;;4.76;77.75;100755.41;10351942;28;20045;-49
2023/01/31 13:10:02;;;;;;;15.25;8.57;;;;;;;4.84;78.25;100741.84;10353038;28;20045;-51
2023/01/31 13:15:13;;;;;;;14.55;7.60;;;;;;;4.90;77.61;100720.44;10356088;28;20103;-49
2023/01/31 13:20:32;;;;;;;14.45;7.88;;;;;;;4.92;78.06;100719.44;10356671;28;20046;-48
2023/01/31 13:25:40;;;;;;;14.07;7.32;;;;;;;4.68;78.55;100684.53;10353684;28;20067;-50
2023/01/31 13:30:54;;;;;;;8.95;6.68;;;;;;;4.89;78.62;100714.28;10354423;28;20057;-48
2023/01/31 13:36:21;;;;;;;14.95;8.10;;;;;;;4.89;78.52;100709.00;10354552;28;21370;-48
2023/01/31 13:41:25;;;;;;;14.15;7.82;;;;;;;4.93;78.98;100704.44;10352040;28;20057;-48
2023/01/31 13:46:35;;;;;;;9.70;6.78;;;;;;;4.95;79.72;100718.41;10354427;28;20049;-48
2023/01/31 13:51:41;;;;;;;19.65;8.35;;;;;;;5.00;81.00;100728.72;10352974;28;20093;-47
2023/01/31 13:56:51;;;;;;;12.38;6.53;;;;;;;4.99;81.33;100721.75;10336186;28;20191;-48
2023/01/31 14:01:55;;;;;;;14.38;8.43;;;;;;;4.95;83.25;100710.50;10353262;28;20460;-47
2023/01/31 14:07:04;;;;;;;13.93;8.37;;;;;;;5.01;82.46;100707.53;10345796;28;20201;-48
2023/01/31 14:12:06;;;;;;;14.85;8.18;;;;;;;5.08;82.41;100718.66;10351520;28;20215;-49
2023/01/31 14:17:11;;;;;;;17.67;8.85;;;;;;;5.15;83.53;100720.06;10350991;28;20239;-48
2023/01/31 14:22:17;;;;;;;14.93;8.15;;;;;;;5.18;84.01;100706.72;10352535;28;20148;-49
2023/01/31 14:27:23;;;;;;;16.38;8.27;;;;;;;5.17;86.45;100706.78;10348282;28;20064;-48
2023/01/31 14:32:32;;;;;;;11.68;7.38;;;;;;;5.10;88.32;100711.50;10348639;28;20054;-54
2023/01/31 14:37:40;;;;;;;11.38;7.95;;;;;;;5.20;89.55;100723.31;10349529;28;20057;-47
2023/01/31 14:42:48;;;;;;;12.93;7.60;;;;;;;5.07;90.66;100712.50;10347780;28;20049;-48
2023/01/31 14:48:17;;;;;;;15.95;9.73;;;;;;;4.99;92.81;100709.41;10348194;28;20908;-48
2023/01/31 14:53:31;;;;;;;14.23;9.18;;;;;;;5.06;93.69;100715.22;10344755;28;20427;-48
2023/01/31 14:58:34;;;;;;;14.55;9.18;;;;;;;4.96;94.24;100713.06;10346873;28;21137;-48
2023/01/31 15:03:38;;;;;;;11.80;7.72;;;;;;;4.98;95.13;100718.25;10346471;28;20263;-48
2023/01/31 15:08:44;;;;;;;13.67;8.47;;;;;;;5.05;96.33;100708.25;10345526;28;20073;-48
2023/01/31 15:13:53;;;;;;;14.57;7.32;;;;;;;5.05;95.10;100709.09;10346536;28;20060;-48
2023/01/31 15:19:13;;;;;;;11.77;7.20;;;;;;;5.12;95.38;100699.97;10341351;28;20049;-51
2023/01/31 15:24:23;;;;;;;11.15;8.40;;;;;;;5.24;95.00;100702.88;10346664;28;20059;-48
2023/01/31 15:29:32;;;;;;;13.48;8.88;;;;;;;5.19;94.59;100703.13;10341825;28;20053;-47
2023/01/31 15:34:43;;;;;;;13.93;7.85;;;;;;;5.14;94.62;100702.50;10341928;28;20048;-48
2023/01/31 15:39:53;;;;;;;13.77;7.25;;;;;;;5.19;94.94;100695.19;10343933;28;20049;-47
2023/01/31 15:45:18;;;;;;;14.07;8.18;;;;;;;5.20;94.50;100696.91;10339222;28;20127;-48
2023/01/31 15:50:21;;;;;;;13.32;8.57;;;;;;;5.27;94.51;100697.47;10345900;28;20053;-48
2023/01/31 15:55:23;;;;;;;12.57;8.07;;;;;;;5.26;93.89;100685.19;10344266;28;20064;-48
2023/01/31 16:00:28;;;;;;;10.40;8.43;;;;;;;5.16;94.67;100684.81;10338861;28;20544;-48
2023/01/31 16:05:33;;;;;;;15.40;9.93;;;;;;;5.16;95.05;100671.59;10340713;28;20046;-48
2023/01/31 16:10:34;;;;;;;13.60;8.25;;;;;;;5.17;94.94;100702.34;10345369;28;20053;-48
2023/01/31 16:15:37;;;;;;;13.48;8.38;;;;;;;5.21;94.93;100693.34;10341673;28;20607;-48
2023/01/31 16:20:43;;;;;;;26.70;18.45;;;;;;;5.24;95.40;100693.19;10344636;28;20140;-47
2023/01/31 16:25:56;;;;;;;12.10;8.00;;;;;;;5.29;94.56;100708.81;10345557;28;20053;-46
2023/01/31 16:31:06;;;;;;;12.60;7.15;;;;;;;5.32;93.29;100701.56;10339035;28;20159;-47
2023/01/31 16:36:11;;;;;;;12.88;7.32;;;;;;;5.19;93.99;100689.09;10355192;28;20140;-47
2023/01/31 16:41:45;;;;;;;9.00;6.30;;;;;;;5.34;93.24;100708.56;10347128;28;20049;-47
2023/01/31 16:46:49;;;;;;;11.43;6.53;;;;;;;5.30;93.25;100698.16;10344031;28;20507;-48
2023/01/31 16:51:55;;;;;;;11.45;6.30;;;;;;;5.55;95.28;100702.16;10342856;28;20150;-48
2023/01/31 16:57:02;;;;;;;9.82;6.30;;;;;;;5.66;92.33;100707.75;10344146;28;20052;-47
2023/01/31 17:02:11;;;;;;;9.25;6.40;;;;;;;5.62;92.53;100703.53;10347192;28;20050;-47
2023/01/31 17:07:21;;;;;;;9.35;5.38;;;;;;;5.55;92.25;100698.66;10345536;28;20719;-47
2023/01/31 17:12:26;;;;;;;8.18;5.72;;;;;;;5.49;92.44;100710.41;10346931;28;20041;-48
2023/01/31 17:17:35;;;;;;;9.57;5.20;;;;;;;5.54;92.12;100711.03;10355334;28;20084;-47
2023/01/31 17:22:37;;;;;;;7.00;4.88;;;;;;;5.58;92.21;100706.44;10346216;28;20052;-48
2023/01/31 17:27:38;;;;;;;6.75;4.57;;;;;;;5.49;93.78;100719.19;10347311;28;20510;-47
2023/01/31 17:32:41;;;;;;;8.45;5.30;;;;;;;5.47;94.49;100712.28;10342712;28;20952;-47
2023/01/31 17:37:42;;;;;;;6.32;4.25;;;;;;;5.53;94.11;100708.47;10349905;28;20191;-47
2023/01/31 17:42:43;;;;;;;7.25;4.82;;;;;;;5.50;94.32;100709.47;10346630;28;20060;-47
2023/01/31 17:47:45;;;;;;;4.63;4.13;;;;;;;5.57;94.68;100712.63;10343819;28;20064;-47
2023/01/31 17:52:47;;;;;;;5.95;4.10;;;;;;;5.55;93.35;100712.72;10347942;28;20833;-47
2023/01/31 17:57:49;;;;;;;5.78;3.92;;;;;;;5.61;93.06;100722.97;10350752;28;20072;-49
2023/01/31 18:02:50;;;;;;;4.97;3.45;;;;;;;5.71;92.36;100717.22;10353653;28;20045;-47
2023/01/31 18:07:53;;;;;;;5.15;3.20;;;;;;;5.72;91.57;100708.34;10350934;28;20042;-47
2023/01/31 18:12:55;;;;;;;6.07;3.60;;;;;;;5.73;91.24;100710.91;10353234;28;20861;-47
2023/01/31 18:17:56;;;;;;;3.20;2.80;;;;;;;5.79;90.95;100699.16;10338689;28;20140;-47
2023/01/31 18:22:57;;;;;;;4.05;3.08;;;;;;;5.83;90.70;100713.91;10337873;28;20734;-47
2023/01/31 18:27:59;;;;;;;3.92;2.40;;;;;;;5.83;90.24;100716.56;10341539;28;20053;-46
2023/01/31 18:33:01;;;;;;;3.92;2.88;;;;;;;5.82;90.87;100720.13;10337482;28;20614;-47
2023/01/31 18:38:05;;;;;;;3.88;2.70;;;;;;;5.84;91.45;100713.00;10349425;28;20054;-47
2023/01/31 18:43:06;;;;;;;2.75;2.20;;;;;;;5.84;92.28;100703.28;10342175;28;20052;-47
2023/01/31 18:48:08;;;;;;;3.63;2.38;;;;;;;5.91;91.94;100701.13;10338462;28;20580;-47
2023/01/31 18:53:09;;;;;;;2.47;2.28;;;;;;;5.89;92.23;100715.38;10335506;28;20928;-47
2023/01/31 18:58:11;;;;;;;3.38;2.92;;;;;;;5.87;92.54;100722.53;10338921;28;20483;-48
2023/01/31 19:03:12;;;;;;;3.15;2.53;;;;;;;5.90;93.09;100723.22;10337096;28;20049;-46
2023/01/31 19:08:14;;;;;;;3.42;2.83;;;;;;;5.91;93.47;100719.63;10339039;28;20049;-46
2023/01/31 19:13:15;;;;;;;3.03;2.45;;;;;;;5.93;93.32;100723.06;10340420;28;20665;-47
2023/01/31 19:18:16;;;;;;;4.95;2.88;;;;;;;5.92;94.02;100709.94;10344151;28;20060;-47
2023/01/31 19:23:18;;;;;;;2.97;2.58;;;;;;;5.98;93.63;100721.03;10343436;28;20049;-47
2023/01/31 19:28:22;;;;;;;3.47;2.47;;;;;;;5.84;93.74;100703.28;10344897;28;20115;-46
2023/01/31 19:33:23;;;;;;;4.80;2.60;;;;;;;5.82;94.33;100721.00;10343378;28;20060;-47
2023/01/31 19:38:24;;;;;;;2.53;2.13;;;;;;;5.79;93.98;100721.13;10340440;28;20057;-47
2023/01/31 19:43:26;;;;;;;2.53;2.22;;;;;;;5.80;94.31;100722.84;10344454;28;20072;-47
2023/01/31 19:48:27;;;;;;;2.60;2.35;;;;;;;5.91;93.24;100701.13;10341811;28;20047;-47
2023/01/31 19:53:29;;;;;;;2.55;2.15;;;;;;;5.94;93.03;100697.47;10339407;28;20555;-47
2023/01/31 19:58:30;;;;;;;4.07;2.70;;;;;;;5.91;92.54;100706.41;10342695;28;20702;-46
2023/01/31 20:03:32;;;;;;;2.35;2.15;;;;;;;5.96;92.19;100708.81;10342628;28;20107;-48
2023/01/31 20:08:35;;;;;;;2.10;1.80;;;;;;;6.06;92.13;100698.66;10340326;28;20061;-46
2023/01/31 20:13:37;;;;;;;2.88;2.20;;;;;;;6.06;91.29;100701.28;10339605;28;20050;-46
2023/01/31 20:18:39;;;;;;;2.67;2.00;;;;;;;6.11;90.61;100705.41;10337273;28;20068;-47
2023/01/31 20:23:42;;;;;;;2.63;2.05;;;;;;;6.13;90.55;100702.66;10344477;28;20727;-47
2023/01/31 20:28:43;;;;;;;3.05;1.80;;;;;;;6.13;90.30;100692.09;10338806;28;20522;-49
2023/01/31 20:33:45;;;;;;;2.38;2.13;;;;;;;6.18;90.06;100701.47;10334287;28;20053;-47
2023/01/31 20:38:46;;;;;;;2.50;2.20;;;;;;;6.12;89.98;100693.03;10331975;28;20962;-47
2023/01/31 20:43:49;;;;;;;3.05;2.28;;;;;;;6.14;89.88;100709.63;10339510;28;20407;-47
2023/01/31 20:48:51;;;;;;;2.65;2.00;;;;;;;6.10;90.31;100700.19;10336978;28;20049;-48
2023/01/31 20:53:53;;;;;;;2.88;2.00;;;;;;;6.23;90.56;100711.81;10335039;28;20053;-48
2023/01/31 20:58:54;;;;;;;2.35;2.13;;;;;;;6.23;91.29;100719.72;10341833;28;20145;-49
2023/01/31 21:03:56;;;;;;;2.42;2.22;;;;;;;6.26;92.44;100732.78;10334221;28;20050;-46
2023/01/31 21:08:57;;;;;;;3.03;2.33;;;;;;;6.28;92.36;100733.53;10337912;28;20095;-46
2023/01/31 21:13:59;;;;;;;2.38;1.90;;;;;;;6.34;92.76;100748.22;10340153;28;20842;-46
2023/01/31 21:19:00;;;;;;;2.42;1.77;;;;;;;6.30;91.70;100747.50;10340919;28;20064;-46
2023/01/31 21:24:03;;;;;;;3.67;1.90;;;;;;;6.25;91.92;100740.81;10346679;28;20053;-47
2023/01/31 21:29:04;;;;;;;3.03;2.40;;;;;;;6.19;91.58;100744.63;10342019;28;20051;-47
2023/01/31 21:34:05;;;;;;;2.30;2.10;;;;;;;6.23;92.31;100730.31;10350202;28;20060;-47
2023/01/31 21:39:07;;;;;;;2.80;2.35;;;;;;;6.32;92.35;100729.78;10343866;28;20175;-47
2023/01/31 21:44:08;;;;;;;4.45;2.42;;;;;;;6.25;91.97;100717.00;10349172;28;20073;-47
2023/01/31 21:49:10;;;;;;;3.95;2.72;;;;;;;6.24;92.53;100716.13;10341324;28;20073;-47
2023/01/31 21:54:11;;;;;;;4.05;2.80;;;;;;;6.21;92.77;100712.81;10338605;28;20057;-47
2023/01/31 21:59:13;;;;;;;4.43;3.05;;;;;;;6.19;92.91;100708.44;10352116;28;20060;-48
2023/01/31 22:04:19;;;;;;;3.55;2.50;;;;;;;6.28;92.28;100716.84;10325187;28;20053;-46
2023/01/31 22:09:20;;;;;;;3.00;2.25;;;;;;;6.33;91.79;100718.25;10333455;28;20060;-47
2023/01/31 22:14:22;;;;;;;3.88;2.85;;;;;;;6.29;91.97;100703.53;10325064;28;20593;-47
2023/01/31 22:19:23;;;;;;;2.85;2.65;;;;;;;6.25;91.74;100696.69;10331689;28;20144;-47
2023/01/31 22:24:25;;;;;;;4.47;2.88;;;;;;;6.13;92.69;100686.81;10330880;28;20904;-48
2023/01/31 22:29:26;;;;;;;3.20;2.50;;;;;;;6.09;93.08;100691.38;10334201;28;20738;-48
2023/01/31 22:34:27;;;;;;;3.20;2.53;;;;;;;6.05;93.85;100667.84;10330342;28;20384;-47
2023/01/31 22:39:29;;;;;;;2.88;2.58;;;;;;;5.97;94.11;100671.75;10318586;28;20137;-47
2023/01/31 22:44:30;;;;;;;2.97;2.42;;;;;;;6.00;94.26;100665.47;10346001;28;20073;-47
2023/01/31 22:49:32;;;;;;;2.22;2.03;;;;;;;6.03;93.61;100659.16;10332967;28;20847;-47
2023/01/31 22:54:34;;;;;;;3.38;2.17;;;;;;;5.99;94.16;100656.69;10326801;28;20144;-46
2023/01/31 22:59:35;;;;;;;3.50;2.10;;;;;;;6.01;93.91;100665.38;10332282;28;20049;-47
2023/01/31 23:04:37;;;;;;;2.50;1.95;;;;;;;5.91;94.08;100661.50;10334979;28;20068;-47
2023/01/31 23:09:38;;;;;;;2.42;1.80;;;;;;;5.95;94.31;100663.03;10313201;28;20057;-47
2023/01/31 23:14:40;;;;;;;2.25;2.05;;;;;;;5.96;93.99;100662.13;10343092;28;20053;-47
2023/01/31 23:19:41;;;;;;;3.92;2.03;;;;;;;5.95;94.08;100633.97;10339600;28;20057;-47
2023/01/31 23:24:43;;;;;;;3.38;1.90;;;;;;;5.97;94.28;100640.06;10337501;28;20193;-47
2023/01/31 23:29:44;;;;;;;2.22;1.90;;;;;;;5.90;93.96;100638.69;10334711;28;20049;-47
2023/01/31 23:34:46;;;;;;;3.90;2.60;;;;;;;5.92;93.73;100638.59;10335575;28;20058;-46
2023/01/31 23:39:48;;;;;;;3.30;2.80;;;;;;;6.00;93.64;100639.91;10335822;28;20283;-46
2023/01/31 23:44:49;;;;;;;3.88;2.88;;;;;;;6.05;93.40;100636.13;10339740;28;20053;-47